sensor_id;sensor_type;location;lat;lon;timestamp;temperature;humidity
18581;DHT22;9420;50.876;7.012;2022-08-18T00:00:34;20.00;99.90
18581;DHT22;9420;50.876;7.012;2022-08-18T00:03:05;20.00;99.90
18581;DHT22;9420;50.876;7.012;2022-08-18T00:05:34;20.00;99.90
18581;DHT22;9420;50.876;7.012;2022-08-18T00:08:01;20.10;99.90
18581;DHT22;9420;50.876;7.012;2022-08-18T00:10:30;20.10;99.90
18581;DHT22;9420;50.876;7.012;2022-08-18T00:12:59;20.20;99.90
18581;DHT22;9420;50.876;7.012;2022-08-18T00:15:26;20.10;99.90
18581;DHT22;9420;50.876;7.012;2022-08-18T00:17:55;19.90;99.90
18581;DHT22;9420;50.876;7.012;2022-08-18T00:20:23;19.80;99.90
18581;DHT22;9420;50.876;7.012;2022-08-18T00:22:51;19.60;99.90
18581;DHT22;9420;50.876;7.012;2022-08-18T00:25:21;19.60;99.90
18581;DHT22;9420;50.876;7.012;2022-08-18T00:27:49;19.60;99.90
18581;DHT22;9420;50.876;7.012;2022-08-18T00:30:18;19.60;99.90
18581;DHT22;9420;50.876;7.012;2022-08-18T00:32:49;19.60;99.90
18581;DHT22;9420;50.876;7.012;2022-08-18T00:35:20;19.60;99.90
18581;DHT22;9420;50.876;7.012;2022-08-18T00:37:52;19.60;99.90
18581;DHT22;9420;50.876;7.012;2022-08-18T00:40:22;19.50;99.90
18581;DHT22;9420;50.876;7.012;2022-08-18T00:42:57;19.50;99.90
18581;DHT22;9420;50.876;7.012;2022-08-18T00:45:28;19.50;99.90
18581;DHT22;9420;50.876;7.012;2022-08-18T00:47:58;19.50;99.90
18581;DHT22;9420;50.876;7.012;2022-08-18T00:50:30;19.50;99.90
18581;DHT22;9420;50.876;7.012;2022-08-18T00:53:03;19.40;99.90
18581;DHT22;9420;50.876;7.012;2022-08-18T00:55:35;19.40;99.90
18581;DHT22;9420;50.876;7.012;2022-08-18T00:58:09;19.40;99.90
18581;DHT22;9420;50.876;7.012;2022-08-18T01:00:41;19.30;99.90
18581;DHT22;9420;50.876;7.012;2022-08-18T01:03:13;19.30;99.90
18581;DHT22;9420;50.876;7.012;2022-08-18T01:05:47;19.30;99.90
18581;DHT22;9420;50.876;7.012;2022-08-18T01:08:19;19.30;99.90
18581;DHT22;9420;50.876;7.012;2022-08-18T01:10:48;19.30;99.90
18581;DHT22;9420;50.876;7.012;2022-08-18T01:13:17;19.30;99.90
18581;DHT22;9420;50.876;7.012;2022-08-18T01:15:46;19.20;99.90
18581;DHT22;9420;50.876;7.012;2022-08-18T01:18:15;19.20;99.90
18581;DHT22;9420;50.876;7.012;2022-08-18T01:21:14;19.10;99.90
18581;DHT22;9420;50.876;7.012;2022-08-18T01:24:08;19.20;99.90
18581;DHT22;9420;50.876;7.012;2022-08-18T01:26:40;19.10;99.90
18581;DHT22;9420;50.876;7.012;2022-08-18T01:29:16;19.10;99.90
18581;DHT22;9420;50.876;7.012;2022-08-18T01:31:47;19.10;99.90
18581;DHT22;9420;50.876;7.012;2022-08-18T01:34:20;19.10;99.90
18581;DHT22;9420;50.876;7.012;2022-08-18T01:36:49;19.20;99.90
18581;DHT22;9420;50.876;7.012;2022-08-18T01:39:21;19.10;99.90
18581;DHT22;9420;50.876;7.012;2022-08-18T01:41:49;19.00;99.90
18581;DHT22;9420;50.876;7.012;2022-08-18T01:44:16;19.00;99.90
18581;DHT22;9420;50.876;7.012;2022-08-18T01:46:43;18.90;99.90
18581;DHT22;9420;50.876;7.012;2022-08-18T01:49:10;18.90;99.90
18581;DHT22;9420;50.876;7.012;2022-08-18T01:51:37;18.80;99.90
18581;DHT22;9420;50.876;7.012;2022-08-18T01:54:09;18.80;99.90
18581;DHT22;9420;50.876;7.012;2022-08-18T01:56:40;18.80;99.90
18581;DHT22;9420;50.876;7.012;2022-08-18T01:59:09;18.80;99.90
18581;DHT22;9420;50.876;7.012;2022-08-18T02:01:41;18.70;99.90
18581;DHT22;9420;50.876;7.012;2022-08-18T02:04:10;18.70;99.90
18581;DHT22;9420;50.876;7.012;2022-08-18T02:06:39;18.70;99.90
18581;DHT22;9420;50.876;7.012;2022-08-18T02:09:06;18.70;99.90
18581;DHT22;9420;50.876;7.012;2022-08-18T02:11:34;18.70;99.90
18581;DHT22;9420;50.876;7.012;2022-08-18T02:14:02;18.70;99.90
18581;DHT22;9420;50.876;7.012;2022-08-18T02:16:30;18.70;99.90
18581;DHT22;9420;50.876;7.012;2022-08-18T02:18:58;18.70;99.90
18581;DHT22;9420;50.876;7.012;2022-08-18T02:21:26;18.60;99.90
18581;DHT22;9420;50.876;7.012;2022-08-18T02:23:53;18.60;99.90
18581;DHT22;9420;50.876;7.012;2022-08-18T02:26:21;18.50;99.90
18581;DHT22;9420;50.876;7.012;2022-08-18T02:28:49;18.40;99.90
18581;DHT22;9420;50.876;7.012;2022-08-18T02:31:20;18.60;99.90
18581;DHT22;9420;50.876;7.012;2022-08-18T02:33:50;18.50;99.90
18581;DHT22;9420;50.876;7.012;2022-08-18T02:36:18;18.50;99.90
18581;DHT22;9420;50.876;7.012;2022-08-18T02:38:45;18.50;99.90
18581;DHT22;9420;50.876;7.012;2022-08-18T02:41:13;18.50;99.90
18581;DHT22;9420;50.876;7.012;2022-08-18T02:43:40;18.50;99.90
18581;DHT22;9420;50.876;7.012;2022-08-18T02:46:08;18.40;99.90
18581;DHT22;9420;50.876;7.012;2022-08-18T02:48:37;18.30;99.90
18581;DHT22;9420;50.876;7.012;2022-08-18T02:51:06;18.30;99.90
18581;DHT22;9420;50.876;7.012;2022-08-18T02:53:37;18.30;99.90
18581;DHT22;9420;50.876;7.012;2022-08-18T02:56:08;18.30;99.90
18581;DHT22;9420;50.876;7.012;2022-08-18T02:58:49;18.30;99.90
18581;DHT22;9420;50.876;7.012;2022-08-18T03:01:18;18.30;99.90
18581;DHT22;9420;50.876;7.012;2022-08-18T03:03:52;18.30;99.90
18581;DHT22;9420;50.876;7.012;2022-08-18T03:06:21;18.20;99.90
18581;DHT22;9420;50.876;7.012;2022-08-18T03:08:50;18.20;99.90
18581;DHT22;9420;50.876;7.012;2022-08-18T03:11:20;18.20;99.90
18581;DHT22;9420;50.876;7.012;2022-08-18T03:13:50;18.20;99.90
18581;DHT22;9420;50.876;7.012;2022-08-18T03:16:19;18.10;99.90
18581;DHT22;9420;50.876;7.012;2022-08-18T03:18:51;18.10;99.90
18581;DHT22;9420;50.876;7.012;2022-08-18T03:21:20;18.00;99.90
18581;DHT22;9420;50.876;7.012;2022-08-18T03:23:51;18.00;99.90
18581;DHT22;9420;50.876;7.012;2022-08-18T03:26:20;18.10;99.90
18581;DHT22;9420;50.876;7.012;2022-08-18T03:28:51;18.10;99.90
18581;DHT22;9420;50.876;7.012;2022-08-18T03:31:22;18.10;99.90
18581;DHT22;9420;50.876;7.012;2022-08-18T03:33:53;17.90;99.90
18581;DHT22;9420;50.876;7.012;2022-08-18T03:36:25;17.70;99.90
18581;DHT22;9420;50.876;7.012;2022-08-18T03:38:54;17.60;99.90
18581;DHT22;9420;50.876;7.012;2022-08-18T03:41:24;17.70;99.90
18581;DHT22;9420;50.876;7.012;2022-08-18T03:43:52;17.60;99.90
18581;DHT22;9420;50.876;7.012;2022-08-18T03:46:23;17.50;99.90
18581;DHT22;9420;50.876;7.012;2022-08-18T03:48:51;17.50;99.90
18581;DHT22;9420;50.876;7.012;2022-08-18T03:51:24;17.40;99.90
18581;DHT22;9420;50.876;7.012;2022-08-18T03:53:55;17.50;99.90
18581;DHT22;9420;50.876;7.012;2022-08-18T03:56:32;17.80;99.90
18581;DHT22;9420;50.876;7.012;2022-08-18T03:59:05;17.80;99.90
18581;DHT22;9420;50.876;7.012;2022-08-18T04:01:38;17.60;99.90
18581;DHT22;9420;50.876;7.012;2022-08-18T04:04:11;17.50;99.90
18581;DHT22;9420;50.876;7.012;2022-08-18T04:06:43;17.40;99.90
18581;DHT22;9420;50.876;7.012;2022-08-18T04:09:16;17.40;99.90
18581;DHT22;9420;50.876;7.012;2022-08-18T04:11:44;17.50;99.90
18581;DHT22;9420;50.876;7.012;2022-08-18T04:14:14;17.50;99.90
18581;DHT22;9420;50.876;7.012;2022-08-18T04:16:43;17.60;99.90
18581;DHT22;9420;50.876;7.012;2022-08-18T04:19:15;17.60;99.90
18581;DHT22;9420;50.876;7.012;2022-08-18T04:21:44;17.70;99.90
18581;DHT22;9420;50.876;7.012;2022-08-18T04:24:14;17.70;99.90
18581;DHT22;9420;50.876;7.012;2022-08-18T04:26:43;17.60;99.90
18581;DHT22;9420;50.876;7.012;2022-08-18T04:29:13;17.50;99.90
18581;DHT22;9420;50.876;7.012;2022-08-18T04:31:42;17.50;99.90
18581;DHT22;9420;50.876;7.012;2022-08-18T04:34:10;17.50;99.90
18581;DHT22;9420;50.876;7.012;2022-08-18T04:36:40;17.50;99.90
18581;DHT22;9420;50.876;7.012;2022-08-18T04:39:09;17.50;99.90
18581;DHT22;9420;50.876;7.012;2022-08-18T04:41:39;17.60;99.90
18581;DHT22;9420;50.876;7.012;2022-08-18T04:44:09;17.70;99.90
18581;DHT22;9420;50.876;7.012;2022-08-18T04:46:40;17.70;99.90
18581;DHT22;9420;50.876;7.012;2022-08-18T04:49:11;17.80;99.90
18581;DHT22;9420;50.876;7.012;2022-08-18T04:51:43;17.90;99.90
18581;DHT22;9420;50.876;7.012;2022-08-18T04:54:33;17.90;99.90
18581;DHT22;9420;50.876;7.012;2022-08-18T04:57:09;18.00;99.90
18581;DHT22;9420;50.876;7.012;2022-08-18T04:59:38;18.00;99.90
18581;DHT22;9420;50.876;7.012;2022-08-18T05:02:07;18.00;99.90
18581;DHT22;9420;50.876;7.012;2022-08-18T05:04:37;18.10;99.90
18581;DHT22;9420;50.876;7.012;2022-08-18T05:07:09;18.10;99.90
18581;DHT22;9420;50.876;7.012;2022-08-18T05:09:37;18.10;99.90
18581;DHT22;9420;50.876;7.012;2022-08-18T05:12:07;18.10;99.90
18581;DHT22;9420;50.876;7.012;2022-08-18T05:14:37;18.10;99.90
18581;DHT22;9420;50.876;7.012;2022-08-18T05:17:04;18.10;99.90
18581;DHT22;9420;50.876;7.012;2022-08-18T05:19:32;18.20;99.90
18581;DHT22;9420;50.876;7.012;2022-08-18T05:22:00;18.20;99.90
18581;DHT22;9420;50.876;7.012;2022-08-18T05:24:30;18.30;99.90
18581;DHT22;9420;50.876;7.012;2022-08-18T05:26:57;18.40;99.90
18581;DHT22;9420;50.876;7.012;2022-08-18T05:29:25;18.40;99.90
18581;DHT22;9420;50.876;7.012;2022-08-18T05:31:52;18.40;99.90
18581;DHT22;9420;50.876;7.012;2022-08-18T05:34:21;18.50;99.90
18581;DHT22;9420;50.876;7.012;2022-08-18T05:37:02;18.40;99.90
18581;DHT22;9420;50.876;7.012;2022-08-18T05:39:55;18.40;99.90
18581;DHT22;9420;50.876;7.012;2022-08-18T05:42:26;18.30;99.90
18581;DHT22;9420;50.876;7.012;2022-08-18T05:44:55;18.30;99.90
18581;DHT22;9420;50.876;7.012;2022-08-18T05:47:24;18.40;99.90
18581;DHT22;9420;50.876;7.012;2022-08-18T05:49:55;18.40;99.90
18581;DHT22;9420;50.876;7.012;2022-08-18T05:52:30;18.40;99.90
18581;DHT22;9420;50.876;7.012;2022-08-18T05:55:04;18.40;99.90
18581;DHT22;9420;50.876;7.012;2022-08-18T05:57:55;18.30;99.90
18581;DHT22;9420;50.876;7.012;2022-08-18T06:00:28;18.40;99.90
18581;DHT22;9420;50.876;7.012;2022-08-18T06:02:59;18.40;99.90
18581;DHT22;9420;50.876;7.012;2022-08-18T06:05:37;18.40;99.90
18581;DHT22;9420;50.876;7.012;2022-08-18T06:08:12;18.40;99.90
18581;DHT22;9420;50.876;7.012;2022-08-18T06:10:46;18.40;99.90
18581;DHT22;9420;50.876;7.012;2022-08-18T06:13:17;18.40;99.90
18581;DHT22;9420;50.876;7.012;2022-08-18T06:15:51;18.50;99.90
18581;DHT22;9420;50.876;7.012;2022-08-18T06:18:39;18.40;99.90
18581;DHT22;9420;50.876;7.012;2022-08-18T06:21:28;18.30;99.90
18581;DHT22;9420;50.876;7.012;2022-08-18T06:24:24;18.30;99.90
18581;DHT22;9420;50.876;7.012;2022-08-18T06:27:04;18.40;99.90
18581;DHT22;9420;50.876;7.012;2022-08-18T06:29:52;18.40;99.90
18581;DHT22;9420;50.876;7.012;2022-08-18T06:32:38;18.40;99.90
18581;DHT22;9420;50.876;7.012;2022-08-18T06:35:26;18.40;99.90
18581;DHT22;9420;50.876;7.012;2022-08-18T06:38:07;18.50;99.90
18581;DHT22;9420;50.876;7.012;2022-08-18T06:41:11;18.60;99.90
18581;DHT22;9420;50.876;7.012;2022-08-18T06:43:48;18.60;99.90
18581;DHT22;9420;50.876;7.012;2022-08-18T06:46:39;18.50;99.90
18581;DHT22;9420;50.876;7.012;2022-08-18T06:49:12;18.50;99.90
18581;DHT22;9420;50.876;7.012;2022-08-18T06:51:43;18.50;99.90
18581;DHT22;9420;50.876;7.012;2022-08-18T06:54:26;18.50;99.90
18581;DHT22;9420;50.876;7.012;2022-08-18T06:56:56;18.50;99.90
18581;DHT22;9420;50.876;7.012;2022-08-18T06:59:28;18.60;99.90
18581;DHT22;9420;50.876;7.012;2022-08-18T07:02:00;18.50;99.90
18581;DHT22;9420;50.876;7.012;2022-08-18T07:04:41;18.50;99.90
18581;DHT22;9420;50.876;7.012;2022-08-18T07:07:15;18.60;99.90
18581;DHT22;9420;50.876;7.012;2022-08-18T07:09:46;18.60;99.90
18581;DHT22;9420;50.876;7.012;2022-08-18T07:12:20;18.70;99.90
18581;DHT22;9420;50.876;7.012;2022-08-18T07:14:53;18.90;99.90
18581;DHT22;9420;50.876;7.012;2022-08-18T07:17:25;18.90;99.90
18581;DHT22;9420;50.876;7.012;2022-08-18T07:19:57;18.90;99.90
18581;DHT22;9420;50.876;7.012;2022-08-18T07:22:31;18.90;99.90
18581;DHT22;9420;50.876;7.012;2022-08-18T07:25:21;18.90;99.90
18581;DHT22;9420;50.876;7.012;2022-08-18T07:27:51;18.90;99.90
18581;DHT22;9420;50.876;7.012;2022-08-18T07:30:30;19.00;99.90
18581;DHT22;9420;50.876;7.012;2022-08-18T07:33:08;19.00;99.90
18581;DHT22;9420;50.876;7.012;2022-08-18T07:35:44;19.20;99.90
18581;DHT22;9420;50.876;7.012;2022-08-18T07:38:20;19.20;99.90
18581;DHT22;9420;50.876;7.012;2022-08-18T07:40:55;19.20;99.90
18581;DHT22;9420;50.876;7.012;2022-08-18T07:43:31;19.20;99.90
18581;DHT22;9420;50.876;7.012;2022-08-18T07:46:11;19.30;99.90
18581;DHT22;9420;50.876;7.012;2022-08-18T07:48:42;19.40;99.90
18581;DHT22;9420;50.876;7.012;2022-08-18T07:51:15;19.40;99.90
18581;DHT22;9420;50.876;7.012;2022-08-18T07:53:53;19.40;99.90
18581;DHT22;9420;50.876;7.012;2022-08-18T07:56:34;19.50;99.90
18581;DHT22;9420;50.876;7.012;2022-08-18T07:59:15;19.50;99.90
18581;DHT22;9420;50.876;7.012;2022-08-18T08:01:54;19.50;99.90
18581;DHT22;9420;50.876;7.012;2022-08-18T08:04:51;19.50;99.90
18581;DHT22;9420;50.876;7.012;2022-08-18T08:07:29;19.50;99.90
18581;DHT22;9420;50.876;7.012;2022-08-18T08:10:31;19.60;99.90
18581;DHT22;9420;50.876;7.012;2022-08-18T08:13:15;19.70;99.90
18581;DHT22;9420;50.876;7.012;2022-08-18T08:15:53;19.80;99.90
18581;DHT22;9420;50.876;7.012;2022-08-18T08:18:43;19.80;99.90
18581;DHT22;9420;50.876;7.012;2022-08-18T08:21:19;19.80;99.90
18581;DHT22;9420;50.876;7.012;2022-08-18T08:23:53;19.80;99.90
18581;DHT22;9420;50.876;7.012;2022-08-18T08:26:36;19.90;99.90
18581;DHT22;9420;50.876;7.012;2022-08-18T08:29:17;19.90;99.90
18581;DHT22;9420;50.876;7.012;2022-08-18T08:31:59;20.00;99.90
18581;DHT22;9420;50.876;7.012;2022-08-18T08:34:34;20.00;99.90
18581;DHT22;9420;50.876;7.012;2022-08-18T08:37:18;20.00;99.90
18581;DHT22;9420;50.876;7.012;2022-08-18T08:39:53;20.00;99.90
18581;DHT22;9420;50.876;7.012;2022-08-18T08:42:27;20.00;99.90
18581;DHT22;9420;50.876;7.012;2022-08-18T08:45:07;20.00;99.90
18581;DHT22;9420;50.876;7.012;2022-08-18T08:47:41;20.10;99.90
18581;DHT22;9420;50.876;7.012;2022-08-18T08:50:20;20.20;99.90
18581;DHT22;9420;50.876;7.012;2022-08-18T08:52:54;20.40;99.90
18581;DHT22;9420;50.876;7.012;2022-08-18T08:55:27;20.40;99.90
18581;DHT22;9420;50.876;7.012;2022-08-18T08:58:10;20.40;99.90
18581;DHT22;9420;50.876;7.012;2022-08-18T09:00:45;20.60;99.90
18581;DHT22;9420;50.876;7.012;2022-08-18T09:03:35;20.60;99.90
18581;DHT22;9420;50.876;7.012;2022-08-18T09:06:21;20.80;99.90
18581;DHT22;9420;50.876;7.012;2022-08-18T09:09:21;20.90;99.90
18581;DHT22;9420;50.876;7.012;2022-08-18T09:12:24;20.90;99.90
18581;DHT22;9420;50.876;7.012;2022-08-18T09:15:23;21.20;99.90
18581;DHT22;9420;50.876;7.012;2022-08-18T09:18:43;21.20;99.90
18581;DHT22;9420;50.876;7.012;2022-08-18T09:21:36;21.20;99.90
18581;DHT22;9420;50.876;7.012;2022-08-18T09:24:21;21.00;99.90
18581;DHT22;9420;50.876;7.012;2022-08-18T09:26:53;21.10;99.90
18581;DHT22;9420;50.876;7.012;2022-08-18T09:29:48;21.20;99.90
18581;DHT22;9420;50.876;7.012;2022-08-18T09:32:55;21.00;99.90
18581;DHT22;9420;50.876;7.012;2022-08-18T09:35:39;21.10;99.90
18581;DHT22;9420;50.876;7.012;2022-08-18T09:38:24;21.30;99.90
18581;DHT22;9420;50.876;7.012;2022-08-18T09:41:16;21.50;99.90
18581;DHT22;9420;50.876;7.012;2022-08-18T09:43:59;21.40;99.90
18581;DHT22;9420;50.876;7.012;2022-08-18T09:47:06;21.60;99.90
18581;DHT22;9420;50.876;7.012;2022-08-18T09:49:46;21.80;99.90
18581;DHT22;9420;50.876;7.012;2022-08-18T09:55:51;22.00;99.90
18581;DHT22;9420;50.876;7.012;2022-08-18T09:58:55;22.40;99.90
18581;DHT22;9420;50.876;7.012;2022-08-18T10:01:47;22.50;99.90
18581;DHT22;9420;50.876;7.012;2022-08-18T10:04:27;22.70;99.90
18581;DHT22;9420;50.876;7.012;2022-08-18T10:10:10;22.50;99.90
18581;DHT22;9420;50.876;7.012;2022-08-18T10:12:59;22.70;99.90
18581;DHT22;9420;50.876;7.012;2022-08-18T10:15:40;22.60;99.90
18581;DHT22;9420;50.876;7.012;2022-08-18T10:18:34;22.70;99.90
18581;DHT22;9420;50.876;7.012;2022-08-18T10:21:25;22.70;99.90
18581;DHT22;9420;50.876;7.012;2022-08-18T10:23:57;22.70;99.90
18581;DHT22;9420;50.876;7.012;2022-08-18T10:29:53;23.20;99.90
18581;DHT22;9420;50.876;7.012;2022-08-18T10:35:56;23.50;99.90
18581;DHT22;9420;50.876;7.012;2022-08-18T10:38:41;23.80;99.90
18581;DHT22;9420;50.876;7.012;2022-08-18T10:41:21;24.00;99.90
18581;DHT22;9420;50.876;7.012;2022-08-18T10:43:53;24.10;99.90
18581;DHT22;9420;50.876;7.012;2022-08-18T10:46:25;24.20;99.90
18581;DHT22;9420;50.876;7.012;2022-08-18T10:49:00;24.30;99.90
18581;DHT22;9420;50.876;7.012;2022-08-18T10:52:05;24.30;99.90
18581;DHT22;9420;50.876;7.012;2022-08-18T10:55:00;24.20;99.90
18581;DHT22;9420;50.876;7.012;2022-08-18T10:58:00;24.00;99.90
18581;DHT22;9420;50.876;7.012;2022-08-18T11:00:56;23.60;99.90
18581;DHT22;9420;50.876;7.012;2022-08-18T11:03:54;23.60;99.90
18581;DHT22;9420;50.876;7.012;2022-08-18T11:06:28;24.00;99.90
18581;DHT22;9420;50.876;7.012;2022-08-18T11:09:04;24.70;99.90
18581;DHT22;9420;50.876;7.012;2022-08-18T11:11:34;24.70;99.90
18581;DHT22;9420;50.876;7.012;2022-08-18T11:14:51;25.10;99.90
18581;DHT22;9420;50.876;7.012;2022-08-18T11:17:41;25.30;99.90
18581;DHT22;9420;50.876;7.012;2022-08-18T11:20:27;25.10;99.90
18581;DHT22;9420;50.876;7.012;2022-08-18T11:22:58;25.20;99.90
18581;DHT22;9420;50.876;7.012;2022-08-18T11:25:28;24.90;99.90
18581;DHT22;9420;50.876;7.012;2022-08-18T11:27:58;25.10;99.90
18581;DHT22;9420;50.876;7.012;2022-08-18T11:30:30;25.30;99.90
18581;DHT22;9420;50.876;7.012;2022-08-18T11:33:02;25.30;99.90
18581;DHT22;9420;50.876;7.012;2022-08-18T11:35:33;25.10;99.90
18581;DHT22;9420;50.876;7.012;2022-08-18T11:38:14;25.00;99.90
18581;DHT22;9420;50.876;7.012;2022-08-18T11:40:44;25.40;99.90
18581;DHT22;9420;50.876;7.012;2022-08-18T11:43:18;25.80;99.90
18581;DHT22;9420;50.876;7.012;2022-08-18T11:45:52;25.70;99.90
18581;DHT22;9420;50.876;7.012;2022-08-18T11:48:32;25.80;99.90
18581;DHT22;9420;50.876;7.012;2022-08-18T11:51:16;25.60;99.90
18581;DHT22;9420;50.876;7.012;2022-08-18T11:53:53;25.60;99.90
18581;DHT22;9420;50.876;7.012;2022-08-18T11:56:24;25.50;99.90
18581;DHT22;9420;50.876;7.012;2022-08-18T11:58:55;25.40;99.90
18581;DHT22;9420;50.876;7.012;2022-08-18T12:01:38;25.20;99.90
18581;DHT22;9420;50.876;7.012;2022-08-18T12:04:24;25.10;99.90
18581;DHT22;9420;50.876;7.012;2022-08-18T12:07:02;25.20;99.90
18581;DHT22;9420;50.876;7.012;2022-08-18T12:09:36;25.40;99.90
18581;DHT22;9420;50.876;7.012;2022-08-18T12:12:14;25.50;99.90
18581;DHT22;9420;50.876;7.012;2022-08-18T12:14:55;25.60;99.90
18581;DHT22;9420;50.876;7.012;2022-08-18T12:17:23;25.30;99.90
18581;DHT22;9420;50.876;7.012;2022-08-18T12:19:51;25.20;99.90
18581;DHT22;9420;50.876;7.012;2022-08-18T12:22:21;25.40;99.90
18581;DHT22;9420;50.876;7.012;2022-08-18T12:24:51;25.60;99.90
18581;DHT22;9420;50.876;7.012;2022-08-18T12:27:22;25.70;99.90
18581;DHT22;9420;50.876;7.012;2022-08-18T12:29:50;25.50;99.90
18581;DHT22;9420;50.876;7.012;2022-08-18T12:32:20;25.30;99.90
18581;DHT22;9420;50.876;7.012;2022-08-18T12:34:50;25.00;99.90
18581;DHT22;9420;50.876;7.012;2022-08-18T12:37:21;24.70;99.90
18581;DHT22;9420;50.876;7.012;2022-08-18T12:39:50;24.80;99.90
18581;DHT22;9420;50.876;7.012;2022-08-18T12:42:18;24.90;99.90
18581;DHT22;9420;50.876;7.012;2022-08-18T12:44:47;25.20;99.90
18581;DHT22;9420;50.876;7.012;2022-08-18T12:47:17;25.10;99.90
18581;DHT22;9420;50.876;7.012;2022-08-18T12:49:47;25.10;99.90
18581;DHT22;9420;50.876;7.012;2022-08-18T12:52:14;25.00;99.90
18581;DHT22;9420;50.876;7.012;2022-08-18T12:54:43;25.10;99.90
18581;DHT22;9420;50.876;7.012;2022-08-18T12:57:18;25.30;99.90
18581;DHT22;9420;50.876;7.012;2022-08-18T12:59:47;25.20;99.90
18581;DHT22;9420;50.876;7.012;2022-08-18T13:02:14;25.40;99.90
18581;DHT22;9420;50.876;7.012;2022-08-18T13:04:42;25.40;99.90
18581;DHT22;9420;50.876;7.012;2022-08-18T13:07:10;25.60;99.90
18581;DHT22;9420;50.876;7.012;2022-08-18T13:09:39;25.90;99.90
18581;DHT22;9420;50.876;7.012;2022-08-18T13:12:08;26.20;99.90
18581;DHT22;9420;50.876;7.012;2022-08-18T13:14:35;26.30;99.90
18581;DHT22;9420;50.876;7.012;2022-08-18T13:17:03;26.60;99.90
18581;DHT22;9420;50.876;7.012;2022-08-18T13:19:30;26.80;99.90
18581;DHT22;9420;50.876;7.012;2022-08-18T13:21:57;26.90;99.90
18581;DHT22;9420;50.876;7.012;2022-08-18T13:24:24;27.20;99.90
18581;DHT22;9420;50.876;7.012;2022-08-18T13:26:51;26.90;99.90
18581;DHT22;9420;50.876;7.012;2022-08-18T13:29:20;26.40;99.90
18581;DHT22;9420;50.876;7.012;2022-08-18T13:31:47;26.20;99.90
18581;DHT22;9420;50.876;7.012;2022-08-18T13:34:15;25.90;99.90
18581;DHT22;9420;50.876;7.012;2022-08-18T13:36:43;25.60;99.90
18581;DHT22;9420;50.876;7.012;2022-08-18T13:39:10;25.50;99.90
18581;DHT22;9420;50.876;7.012;2022-08-18T13:41:37;25.40;99.90
18581;DHT22;9420;50.876;7.012;2022-08-18T13:44:06;25.40;99.90
18581;DHT22;9420;50.876;7.012;2022-08-18T13:46:35;25.20;99.90
18581;DHT22;9420;50.876;7.012;2022-08-18T13:49:10;24.90;99.90
18581;DHT22;9420;50.876;7.012;2022-08-18T13:51:37;24.70;99.90
18581;DHT22;9420;50.876;7.012;2022-08-18T13:54:07;24.60;99.90
18581;DHT22;9420;50.876;7.012;2022-08-18T13:56:34;24.80;99.90
18581;DHT22;9420;50.876;7.012;2022-08-18T13:59:02;24.90;99.90
18581;DHT22;9420;50.876;7.012;2022-08-18T14:01:30;24.80;99.90
18581;DHT22;9420;50.876;7.012;2022-08-18T14:03:58;24.70;99.90
18581;DHT22;9420;50.876;7.012;2022-08-18T14:06:25;24.80;99.90
18581;DHT22;9420;50.876;7.012;2022-08-18T14:08:53;25.10;99.90
18581;DHT22;9420;50.876;7.012;2022-08-18T14:11:24;25.20;99.90
18581;DHT22;9420;50.876;7.012;2022-08-18T14:13:54;25.60;99.90
18581;DHT22;9420;50.876;7.012;2022-08-18T14:16:22;26.20;99.90
18581;DHT22;9420;50.876;7.012;2022-08-18T14:18:50;26.70;99.90
18581;DHT22;9420;50.876;7.012;2022-08-18T14:21:33;27.30;99.90
18581;DHT22;9420;50.876;7.012;2022-08-18T14:24:18;28.10;99.90
18581;DHT22;9420;50.876;7.012;2022-08-18T14:27:03;28.80;99.90
18581;DHT22;9420;50.876;7.012;2022-08-18T14:29:30;28.40;99.90
18581;DHT22;9420;50.876;7.012;2022-08-18T14:31:57;28.10;99.90
18581;DHT22;9420;50.876;7.012;2022-08-18T14:34:24;28.40;99.90
18581;DHT22;9420;50.876;7.012;2022-08-18T14:36:53;28.10;99.90
18581;DHT22;9420;50.876;7.012;2022-08-18T14:39:20;28.10;99.90
18581;DHT22;9420;50.876;7.012;2022-08-18T14:41:47;28.40;99.90
18581;DHT22;9420;50.876;7.012;2022-08-18T14:44:14;29.00;99.90
18581;DHT22;9420;50.876;7.012;2022-08-18T14:46:41;29.50;99.90
18581;DHT22;9420;50.876;7.012;2022-08-18T14:49:12;29.30;99.90
18581;DHT22;9420;50.876;7.012;2022-08-18T14:51:39;29.30;99.90
18581;DHT22;9420;50.876;7.012;2022-08-18T14:54:09;29.70;99.90
18581;DHT22;9420;50.876;7.012;2022-08-18T14:56:37;29.50;99.90
18581;DHT22;9420;50.876;7.012;2022-08-18T14:59:04;28.40;99.90
18581;DHT22;9420;50.876;7.012;2022-08-18T15:01:32;27.80;99.90
18581;DHT22;9420;50.876;7.012;2022-08-18T15:03:59;28.10;99.90
18581;DHT22;9420;50.876;7.012;2022-08-18T15:06:27;28.30;99.90
18581;DHT22;9420;50.876;7.012;2022-08-18T15:08:54;28.80;99.90
18581;DHT22;9420;50.876;7.012;2022-08-18T15:11:23;29.40;99.90
18581;DHT22;9420;50.876;7.012;2022-08-18T15:13:50;29.80;99.90
18581;DHT22;9420;50.876;7.012;2022-08-18T15:16:19;29.50;99.90
18581;DHT22;9420;50.876;7.012;2022-08-18T15:18:47;29.60;99.90
18581;DHT22;9420;50.876;7.012;2022-08-18T15:21:15;29.80;99.90
18581;DHT22;9420;50.876;7.012;2022-08-18T15:23:59;30.20;99.90
18581;DHT22;9420;50.876;7.012;2022-08-18T15:26:45;29.90;99.90
18581;DHT22;9420;50.876;7.012;2022-08-18T15:29:14;29.80;99.90
18581;DHT22;9420;50.876;7.012;2022-08-18T15:31:41;29.90;99.90
18581;DHT22;9420;50.876;7.012;2022-08-18T15:34:09;30.10;99.90
18581;DHT22;9420;50.876;7.012;2022-08-18T15:36:36;29.40;99.90
18581;DHT22;9420;50.876;7.012;2022-08-18T15:39:04;29.40;99.90
18581;DHT22;9420;50.876;7.012;2022-08-18T15:41:33;29.10;99.90
18581;DHT22;9420;50.876;7.012;2022-08-18T15:44:05;29.50;99.90
18581;DHT22;9420;50.876;7.012;2022-08-18T15:46:35;29.70;99.90
18581;DHT22;9420;50.876;7.012;2022-08-18T15:49:04;30.10;99.90
18581;DHT22;9420;50.876;7.012;2022-08-18T15:51:33;30.20;99.90
18581;DHT22;9420;50.876;7.012;2022-08-18T15:54:01;30.40;99.90
18581;DHT22;9420;50.876;7.012;2022-08-18T15:56:28;30.30;99.90
18581;DHT22;9420;50.876;7.012;2022-08-18T15:58:58;30.10;99.90
18581;DHT22;9420;50.876;7.012;2022-08-18T16:01:33;30.00;99.90
18581;DHT22;9420;50.876;7.012;2022-08-18T16:04:02;29.00;99.90
18581;DHT22;9420;50.876;7.012;2022-08-18T16:06:31;28.00;99.90
18581;DHT22;9420;50.876;7.012;2022-08-18T16:09:00;27.70;99.90
18581;DHT22;9420;50.876;7.012;2022-08-18T16:11:28;27.80;99.90
18581;DHT22;9420;50.876;7.012;2022-08-18T16:13:57;28.00;99.90
18581;DHT22;9420;50.876;7.012;2022-08-18T16:16:24;28.20;99.90
18581;DHT22;9420;50.876;7.012;2022-08-18T16:18:53;28.10;99.90
18581;DHT22;9420;50.876;7.012;2022-08-18T16:21:22;28.20;99.90
18581;DHT22;9420;50.876;7.012;2022-08-18T16:23:51;28.20;99.90
18581;DHT22;9420;50.876;7.012;2022-08-18T16:26:21;28.10;99.90
18581;DHT22;9420;50.876;7.012;2022-08-18T16:28:50;28.10;99.90
18581;DHT22;9420;50.876;7.012;2022-08-18T16:31:19;28.20;99.90
18581;DHT22;9420;50.876;7.012;2022-08-18T16:33:50;28.20;99.90
18581;DHT22;9420;50.876;7.012;2022-08-18T16:36:21;27.80;99.90
18581;DHT22;9420;50.876;7.012;2022-08-18T16:38:50;28.00;99.90
18581;DHT22;9420;50.876;7.012;2022-08-18T16:41:17;28.10;99.90